| time (UTC) | temp F | wind direction | speed knots | gust knots | rain 1hr in | rain 24hr in | rain mn in | humidity % | barometer mb |
| 20260831135030 | 79 | 230 | 0.9 | 1.7 | 0.00 | 0.00 | 0.00 | 24 | 1014.4 |
| 20260831134526 | 79 | 301 | 0.0 | 0.9 | 0.00 | 0.00 | 0.00 | 25 | 1014.4 |
| 20260831134021 | 78 | 278 | 0.0 | 0.9 | 0.00 | 0.00 | 0.00 | 24 | 1014.1 |
| 20260831133516 | 77 | 245 | 0.0 | 1.7 | 0.00 | 0.00 | 0.00 | 25 | 1014.3 |
| 20260831133011 | 77 | 319 | 0.9 | 1.7 | 0.00 | 0.00 | 0.00 | 24 | 1014.3 |
| 20260831132507 | 77 | 102 | 0.0 | 1.7 | 0.00 | 0.00 | 0.00 | 25 | 1014.2 |
| 20260831132005 | 78 | 151 | 0.9 | 2.6 | 0.00 | 0.00 | 0.00 | 24 | 1014.2 |
| 20260831131500 | 77 | 179 | 1.7 | 2.6 | 0.00 | 0.00 | 0.00 | 24 | 1014.1 |
| 20260831130956 | 77 | 209 | 1.7 | 2.6 | 0.00 | 0.00 | 0.00 | 25 | 1014.2 |
| 20260831130451 | 78 | 96 | 0.0 | 1.7 | 0.00 | 0.00 | 0.00 | 25 | 1014.1 |
| 20260831125950 | 78 | 253 | 0.0 | 1.7 | 0.00 | 0.00 | 0.00 | 24 | 1014.2 |
| 20260831125445 | 78 | 170 | 0.9 | 1.7 | 0.00 | 0.00 | 0.00 | 25 | 1014.1 |
| 20260831124941 | 77 | 200 | 0.9 | 1.7 | 0.00 | 0.00 | 0.00 | 25 | 1014.1 |
| 20260831124437 | 78 | 205 | 0.9 | 1.7 | 0.00 | 0.00 | 0.00 | 25 | 1014.0 |
| 20260831123933 | 78 | 168 | 0.0 | 1.7 | 0.00 | 0.00 | 0.00 | 25 | 1013.9 |
| 20260831123431 | 78 | 251 | 1.7 | 2.6 | 0.00 | 0.00 | 0.00 | 25 | 1014.0 |
| 20260831122926 | 80 | 237 | 0.0 | 1.7 | 0.00 | 0.00 | 0.00 | 24 | 1013.8 |
| 20260831122421 | 80 | 172 | 0.9 | 0.9 | 0.00 | 0.00 | 0.00 | 24 | 1013.9 |
| 20260831121916 | 79 | 170 | 0.9 | 1.7 | 0.00 | 0.00 | 0.00 | 25 | 1013.7 |
| 20260831121412 | 79 | 233 | 0.0 | 1.7 | 0.00 | 0.00 | 0.00 | 25 | 1013.7 |
| 20260831120908 | 79 | 181 | 1.7 | 3.5 | 0.00 | 0.00 | 0.00 | 24 | 1014.0 |
| 20260831120402 | 77 | 211 | 0.9 | 2.6 | 0.00 | 0.00 | 0.00 | 25 | 1013.6 |
| 20260831115856 | 78 | 165 | 0.0 | 1.7 | 0.00 | 0.00 | 0.00 | 25 | 1013.7 |
| 20260831115353 | 79 | 195 | 1.7 | 2.6 | 0.00 | 0.00 | 0.00 | 25 | 1013.7 |
| 20260831114852 | 79 | 257 | 0.9 | 1.7 | 0.00 | 0.00 | 0.00 | 25 | 1013.8 |
| 20260831114351 | 81 | 211 | 3.5 | 3.5 | 0.00 | 0.00 | 0.00 | 24 | 1013.9 |
| 20260831113848 | 81 | 119 | 0.0 | 1.7 | 0.00 | 0.00 | 0.00 | 24 | 1013.7 |
| 20260831113347 | 81 | 149 | 1.7 | 1.7 | 0.00 | 0.00 | 0.00 | 24 | 1013.6 |
| 20260831112841 | 80 | 228 | 0.9 | 1.7 | 0.00 | 0.00 | 0.00 | 25 | 1013.7 |
| 20260831112336 | 80 | 217 | 0.0 | 1.7 | 0.00 | 0.00 | 0.00 | 25 | 1013.7 |
| 20260831111831 | 80 | 49 | 0.0 | 1.7 | 0.00 | 0.00 | 0.00 | 25 | 1013.7 |
| 20260831111323 | 81 | 249 | 0.0 | 0.9 | 0.00 | 0.00 | 0.00 | 25 | 1013.7 |
| 20260831110818 | 82 | 135 | 0.9 | 1.7 | 0.00 | 0.00 | 0.00 | 24 | 1013.7 |
| 20260831110318 | 82 | 130 | 0.0 | 1.7 | 0.00 | 0.00 | 0.00 | 24 | 1013.7 |
| 20260831105811 | 82 | 309 | 0.0 | 0.9 | 0.00 | 0.00 | 0.00 | 24 | 1013.7 |
| 20260831105307 | 83 | 122 | 0.0 | 1.7 | 0.00 | 0.00 | 0.00 | 23 | 1013.7 |
| 20260831104807 | 82 | 179 | 0.9 | 1.7 | 0.00 | 0.00 | 0.00 | 24 | 1013.6 |
| 20260831104303 | 84 | 78 | 0.0 | 1.7 | 0.00 | 0.00 | 0.00 | 24 | 1013.5 |
| 20260831103758 | 82 | 102 | 1.7 | 2.6 | 0.00 | 0.00 | 0.00 | 24 | 1013.5 |
| 20260831103254 | 82 | 195 | 0.0 | 0.9 | 0.00 | 0.00 | 0.00 | 25 | 1013.7 |
| 20260831102753 | 83 | 70 | 0.9 | 1.7 | 0.00 | 0.00 | 0.00 | 24 | 1013.4 |
| 20260831102248 | 83 | 207 | 0.0 | 1.7 | 0.00 | 0.00 | 0.00 | 24 | 1013.2 |
| 20260831101744 | 84 | 88 | 0.9 | 2.6 | 0.00 | 0.00 | 0.00 | 24 | 1013.5 |
| 20260831101239 | 85 | 191 | 0.0 | 1.7 | 0.00 | 0.00 | 0.00 | 22 | 1013.3 |
| 20260831100735 | 84 | 169 | 0.9 | 2.6 | 0.00 | 0.00 | 0.00 | 21 | 1013.4 |
| 20260831100231 | 83 | 50 | 0.0 | 1.7 | 0.00 | 0.00 | 0.00 | 23 | 1013.4 |
| 20260831095729 | 83 | 205 | 0.0 | 1.7 | 0.00 | 0.00 | 0.00 | 24 | 1013.6 |
| 20260831095225 | 84 | 88 | 0.0 | 0.9 | 0.00 | 0.00 | 0.00 | 23 | 1013.3 |
| 20260831094725 | 84 | 168 | 1.7 | 2.6 | 0.00 | 0.00 | 0.00 | 24 | 1013.5 |
| 20260831094221 | 84 | 210 | 0.9 | 1.7 | 0.00 | 0.00 | 0.00 | 24 | 1013.5 |
| 20260831093717 | 86 | 342 | 0.9 | 3.5 | 0.00 | 0.00 | 0.00 | 21 | 1013.5 |
| 20260831093212 | 86 | 177 | 0.9 | 1.7 | 0.00 | 0.00 | 0.00 | 22 | 1013.5 |
| 20260831092708 | 86 | 106 | 0.0 | 1.7 | 0.00 | 0.00 | 0.00 | 20 | 1013.3 |
| 20260831092203 | 88 | 99 | 0.9 | 1.7 | 0.00 | 0.00 | 0.00 | 21 | 1013.2 |
| 20260831091703 | 86 | 185 | 0.0 | 0.9 | 0.00 | 0.00 | 0.00 | 23 | 1013.3 |
| 20260831091159 | 83 | 355 | 1.7 | 1.7 | 0.00 | 0.00 | 0.00 | 24 | 1013.4 |
| 20260831090659 | 85 | 289 | 0.9 | 1.7 | 0.00 | 0.00 | 0.00 | 23 | 1013.3 |
| 20260831090155 | 86 | 76 | 1.7 | 1.7 | 0.00 | 0.00 | 0.00 | 22 | 1013.3 |
| 20260831085651 | 86 | 64 | 1.7 | 1.7 | 0.00 | 0.00 | 0.00 | 22 | 1013.5 |
| 20260831085147 | 87 | 147 | 0.0 | 1.7 | 0.00 | 0.00 | 0.00 | 21 | 1013.6 |
| 20260831084642 | 87 | 266 | 0.0 | 1.7 | 0.00 | 0.00 | 0.00 | 23 | 1013.6 |
| 20260831084138 | 86 | 154 | 1.7 | 1.7 | 0.00 | 0.00 | 0.00 | 22 | 1013.5 |
| 20260831083634 | 85 | 63 | 0.0 | 1.7 | 0.00 | 0.00 | 0.00 | 24 | 1013.4 |
| 20260831083129 | 85 | 80 | 1.7 | 2.6 | 0.00 | 0.00 | 0.00 | 24 | 1013.4 |
| 20260831082627 | 85 | 299 | 0.0 | 2.6 | 0.00 | 0.00 | 0.00 | 24 | 1013.6 |
| 20260831082123 | 84 | 79 | 0.9 | 1.7 | 0.00 | 0.00 | 0.00 | 24 | 1013.5 |
| 20260831081618 | 85 | 63 | 0.0 | 1.7 | 0.00 | 0.00 | 0.00 | 24 | 1013.8 |
| 20260831081114 | 84 | 68 | 0.0 | 0.9 | 0.00 | 0.00 | 0.00 | 25 | 1013.5 |
| 20260831080609 | 84 | 269 | 0.0 | 0.9 | 0.00 | 0.00 | 0.00 | 26 | 1013.7 |
| 20260831080104 | 85 | 48 | 0.9 | 1.7 | 0.00 | 0.00 | 0.00 | 26 | 1013.6 |
| 20260831075600 | 86 | 63 | 1.7 | 1.7 | 0.00 | 0.00 | 0.00 | 25 | 1013.7 |
| 20260831075055 | 87 | 55 | 1.7 | 2.6 | 0.00 | 0.00 | 0.00 | 24 | 1013.8 |
| 20260831074554 | 87 | 100 | 0.0 | 0.9 | 0.00 | 0.00 | 0.00 | 24 | 1013.6 |
| 20260831074049 | 87 | 222 | 0.0 | 1.7 | 0.00 | 0.00 | 0.00 | 24 | 1013.7 |
| 20260831073544 | 87 | 255 | 0.9 | 2.6 | 0.00 | 0.00 | 0.00 | 23 | 1013.5 |
| 20260831073043 | 87 | 170 | 1.7 | 2.6 | 0.00 | 0.00 | 0.00 | 23 | 1013.6 |
| 20260831072539 | 87 | 237 | 0.9 | 0.9 | 0.00 | 0.00 | 0.00 | 23 | 1013.6 |
| 20260831072035 | 87 | 89 | 0.0 | 0.9 | 0.00 | 0.00 | 0.00 | 24 | 1013.7 |
| 20260831071534 | 87 | 223 | 0.0 | 0.9 | 0.00 | 0.00 | 0.00 | 23 | 1013.4 |
| 20260831071029 | 88 | 239 | 1.7 | 3.5 | 0.00 | 0.00 | 0.00 | 23 | 1013.5 |
| 20260831070528 | 88 | 251 | 0.9 | 2.6 | 0.00 | 0.00 | 0.00 | 23 | 1013.4 |
| 20260831070023 | 88 | 247 | 0.0 | 1.7 | 0.00 | 0.00 | 0.00 | 23 | 1013.6 |
| 20260831065521 | 89 | 59 | 0.9 | 1.7 | 0.00 | 0.00 | 0.00 | 23 | 1013.3 |
| 20260831065016 | 89 | 191 | 0.0 | 1.7 | 0.00 | 0.00 | 0.00 | 23 | 1013.4 |
| 20260831064511 | 90 | 284 | 0.0 | 1.7 | 0.00 | 0.00 | 0.00 | 23 | 1013.4 |
| 20260831064006 | 91 | 92 | 1.7 | 1.7 | 0.00 | 0.00 | 0.00 | 22 | 1013.3 |
| 20260831063501 | 92 | 332 | 1.7 | 2.6 | 0.00 | 0.00 | 0.00 | 21 | 1013.4 |
| 20260831062955 | 93 | 285 | 2.6 | 8.7 | 0.00 | 0.00 | 0.00 | 20 | 1013.4 |
| 20260831062451 | 92 | 260 | 6.1 | 7.8 | 0.00 | 0.00 | 0.00 | 20 | 1013.3 |
| 20260831061950 | 92 | 253 | 4.3 | 8.7 | 0.00 | 0.00 | 0.00 | 20 | 1013.2 |
| 20260831061448 | 92 | 268 | 4.3 | 8.7 | 0.00 | 0.00 | 0.00 | 20 | 1013.2 |
| 20260831060945 | 93 | 238 | 6.1 | 11.3 | 0.00 | 0.00 | 0.00 | 20 | 1013.2 |
| 20260831060439 | 92 | 272 | 4.3 | 11.3 | 0.00 | 0.00 | 0.00 | 20 | 1013.1 |
| 20260831055938 | 92 | 287 | 5.2 | 13.0 | 0.00 | 0.00 | 0.00 | 20 | 1013.1 |
| 20260831055433 | 92 | 285 | 5.2 | 9.6 | 0.00 | 0.00 | 0.00 | 20 | 1013.1 |
| 20260831054929 | 93 | 287 | 9.6 | 16.5 | 0.00 | 0.00 | 0.00 | 20 | 1013.1 |
| 20260831054424 | 93 | 268 | 10.4 | 13.0 | 0.00 | 0.00 | 0.00 | 20 | 1013.4 |
| 20260831053923 | 93 | 293 | 6.1 | 9.6 | 0.00 | 0.00 | 0.00 | 20 | 1013.2 |
| 20260831053421 | 93 | 288 | 7.0 | 13.0 | 0.00 | 0.00 | 0.00 | 20 | 1013.3 |
| 20260831052916 | 93 | 300 | 7.8 | 14.8 | 0.00 | 0.00 | 0.00 | 20 | 1013.1 |
| 20260831052415 | 93 | 324 | 13.9 | 14.8 | 0.00 | 0.00 | 0.00 | 20 | 1013.2 |
| 20260831051914 | 93 | 312 | 10.4 | 13.0 | 0.00 | 0.00 | 0.00 | 20 | 1013.3 |
| 20260831051412 | 93 | 287 | 6.1 | 11.3 | 0.00 | 0.00 | 0.00 | 21 | 1013.2 |
| 20260831050908 | 93 | 253 | 5.2 | 10.4 | 0.00 | 0.00 | 0.00 | 21 | 1013.2 |
| 20260831050402 | 93 | 240 | 5.2 | 13.0 | 0.00 | 0.00 | 0.00 | 20 | 1013.2 |
| 20260831045901 | 93 | 301 | 3.5 | 13.9 | 0.00 | 0.00 | 0.00 | 21 | 1013.1 |
| 20260831045355 | 93 | 303 | 8.7 | 12.2 | 0.00 | 0.00 | 0.00 | 21 | 1013.0 |
| 20260831044850 | 93 | 277 | 12.2 | 14.8 | 0.00 | 0.00 | 0.00 | 21 | 1013.1 |
| 20260831044350 | 93 | 287 | 12.2 | 17.4 | 0.00 | 0.00 | 0.00 | 21 | 1012.9 |
| 20260831043847 | 93 | 303 | 5.2 | 16.5 | 0.00 | 0.00 | 0.00 | 21 | 1013.3 |
| 20260831043346 | 93 | 260 | 7.8 | 17.4 | 0.00 | 0.00 | 0.00 | 21 | 1012.9 |
| 20260831042841 | 93 | 288 | 5.2 | 13.0 | 0.00 | 0.00 | 0.00 | 22 | 1013.3 |
| 20260831042340 | 93 | 324 | 4.3 | 10.4 | 0.00 | 0.00 | 0.00 | 22 | 1013.0 |
| 20260831041836 | 94 | 295 | 12.2 | 16.5 | 0.00 | 0.00 | 0.00 | 22 | 1013.0 |
| 20260831041335 | 93 | 345 | 10.4 | 15.6 | 0.00 | 0.00 | 0.00 | 23 | 1013.0 |
| 20260831040830 | 94 | 23 | 2.6 | 16.5 | 0.00 | 0.00 | 0.00 | 22 | 1013.0 |
| 20260831040329 | 93 | 324 | 9.6 | 13.9 | 0.00 | 0.00 | 0.00 | 23 | 1012.8 |
| 20260831035828 | 93 | 306 | 13.9 | 15.6 | 0.00 | 0.00 | 0.00 | 24 | 1012.6 |
| 20260831035327 | 94 | 299 | 11.3 | 13.9 | 0.00 | 0.00 | 0.00 | 23 | 1012.7 |
| 20260831034822 | 94 | 281 | 5.2 | 7.8 | 0.00 | 0.00 | 0.00 | 23 | 1012.5 |
| 20260831034317 | 94 | 289 | 4.3 | 13.0 | 0.00 | 0.00 | 0.00 | 22 | 1012.6 |
| 20260831033812 | 94 | 313 | 8.7 | 13.0 | 0.00 | 0.00 | 0.00 | 23 | 1012.4 |
| 20260831033307 | 95 | 287 | 4.3 | 13.0 | 0.00 | 0.00 | 0.00 | 22 | 1012.4 |
| 20260831032803 | 95 | 280 | 6.1 | 9.6 | 0.00 | 0.00 | 0.00 | 22 | 1012.3 |
| 20260831032257 | 94 | 301 | 6.1 | 15.6 | 0.00 | 0.00 | 0.00 | 22 | 1012.1 |
| 20260831031752 | 94 | 280 | 3.5 | 8.7 | 0.00 | 0.00 | 0.00 | 23 | 1012.0 |
| 20260831031251 | 94 | 308 | 6.1 | 11.3 | 0.00 | 0.00 | 0.00 | 23 | 1011.7 |
| 20260831030746 | 94 | 326 | 7.8 | 10.4 | 0.00 | 0.00 | 0.00 | 24 | 1012.0 |
| 20260831030244 | 94 | 315 | 5.2 | 9.6 | 0.00 | 0.00 | 0.00 | 24 | 1011.7 |
| 20260831025744 | 94 | 252 | 9.6 | 19.1 | 0.00 | 0.00 | 0.00 | 23 | 1011.7 |
| 20260831025238 | 94 | 296 | 5.2 | 12.2 | 0.00 | 0.00 | 0.00 | 24 | 1011.8 |
| 20260831024735 | 95 | 274 | 8.7 | 14.8 | 0.00 | 0.00 | 0.00 | 23 | 1011.7 |
| 20260831024233 | 95 | 306 | 5.2 | 7.8 | 0.00 | 0.00 | 0.00 | 25 | 1012.0 |
| 20260831023732 | 95 | 301 | 11.3 | 14.8 | 0.00 | 0.00 | 0.00 | 26 | 1012.0 |
| 20260831023231 | 95 | 293 | 9.6 | 19.1 | 0.00 | 0.00 | 0.00 | 25 | 1011.5 |
| 20260831022726 | 95 | 289 | 9.6 | 17.4 | 0.00 | 0.00 | 0.00 | 25 | 1011.5 |
| 20260831022221 | 95 | 292 | 7.8 | 17.4 | 0.00 | 0.00 | 0.00 | 26 | 1011.7 |
| 20260831021720 | 95 | 295 | 8.7 | 16.5 | 0.00 | 0.00 | 0.00 | 27 | 1011.7 |
| 20260831021215 | 95 | 273 | 7.8 | 19.1 | 0.00 | 0.00 | 0.00 | 27 | 1011.5 |
| 20260831020712 | 96 | 261 | 9.6 | 14.8 | 0.00 | 0.00 | 0.00 | 26 | 1011.3 |
| 20260831020211 | 96 | 273 | 7.8 | 19.1 | 0.00 | 0.00 | 0.00 | 26 | 1011.2 |
| 20260831015706 | 96 | 243 | 16.5 | 20.9 | 0.00 | 0.00 | 0.00 | 25 | 1011.0 |
| 20260831015201 | 96 | 265 | 11.3 | 20.0 | 0.00 | 0.00 | 0.00 | 25 | 1011.1 |
| 20260831014656 | 96 | 271 | 9.6 | 20.0 | 0.00 | 0.00 | 0.00 | 24 | 1010.9 |
| 20260831014151 | 97 | 310 | 12.2 | 16.5 | 0.00 | 0.00 | 0.00 | 23 | 1011.0 |
| 20260831013647 | 97 | 281 | 7.0 | 16.5 | 0.00 | 0.00 | 0.00 | 23 | 1010.5 |
| 20260831013147 | 97 | 292 | 7.0 | 17.4 | 0.00 | 0.00 | 0.00 | 23 | 1010.9 |
| 20260831012642 | 98 | 264 | 8.7 | 11.3 | 0.00 | 0.00 | 0.00 | 23 | 1010.7 |
| 20260831012137 | 98 | 274 | 9.6 | 16.5 | 0.00 | 0.00 | 0.00 | 23 | 1010.8 |
| 20260831011636 | 98 | 293 | 5.2 | 14.8 | 0.00 | 0.00 | 0.00 | 23 | 1010.8 |
| 20260831011132 | 99 | 326 | 7.0 | 8.7 | 0.00 | 0.00 | 0.00 | 23 | 1011.0 |
| 20260831010627 | 101 | 261 | 7.8 | 12.2 | 0.00 | 0.00 | 0.00 | 23 | 1010.6 |
| 20260831010122 | 101 | 287 | 5.2 | 15.6 | 0.00 | 0.00 | 0.00 | 23 | 1010.8 |
| 20260831005617 | 101 | 250 | 7.0 | 10.4 | 0.00 | 0.00 | 0.00 | 22 | 1010.7 |
| 20260831005112 | 102 | 258 | 6.1 | 9.6 | 0.00 | 0.00 | 0.00 | 22 | 1010.8 |
| 20260831004608 | 103 | 248 | 5.2 | 13.0 | 0.00 | 0.00 | 0.00 | 22 | 1010.6 |
| 20260831004103 | 103 | 238 | 6.1 | 7.8 | 0.00 | 0.00 | 0.00 | 22 | 1010.7 |
| 20260831003600 | 102 | 262 | 7.0 | 16.5 | 0.00 | 0.00 | 0.00 | 22 | 1010.7 |
| 20260831003055 | 103 | 243 | 13.0 | 20.0 | 0.00 | 0.00 | 0.00 | 22 | 1010.7 |
| 20260831002554 | 103 | 327 | 5.2 | 13.0 | 0.00 | 0.00 | 0.00 | 22 | 1010.7 |
| 20260831002049 | 103 | 290 | 7.0 | 15.6 | 0.00 | 0.00 | 0.00 | 21 | 1010.8 |
| 20260831001544 | 104 | 242 | 14.8 | 20.0 | 0.00 | 0.00 | 0.00 | 21 | 1010.8 |
| 20260831001041 | 104 | 275 | 7.8 | 18.2 | 0.00 | 0.00 | 0.00 | 21 | 1010.7 |
| 20260831000537 | 104 | 248 | 7.8 | 12.2 | 0.00 | 0.00 | 0.00 | 21 | 1010.6 |
| 20260831000036 | 104 | 260 | 6.1 | 12.2 | 0.00 | 0.00 | 0.00 | 21 | 1010.8 |
| 20260830235535 | 104 | 255 | 16.5 | 18.2 | 0.00 | 0.00 | 0.00 | 21 | 1010.8 |
| 20260830235030 | 104 | 249 | 12.2 | 19.1 | 0.00 | 0.00 | 0.00 | 21 | 1010.7 |
| 20260830234525 | 106 | 272 | 7.8 | 11.3 | 0.00 | 0.00 | 0.00 | 20 | 1010.8 |
| 20260830234020 | 105 | 238 | 7.8 | 16.5 | 0.00 | 0.00 | 0.00 | 21 | 1010.7 |
| 20260830233515 | 105 | 260 | 7.0 | 14.8 | 0.00 | 0.00 | 0.00 | 21 | 1010.9 |
| 20260830233012 | 105 | 253 | 13.9 | 20.0 | 0.00 | 0.00 | 0.00 | 21 | 1010.8 |
| 20260830232508 | 105 | 264 | 6.1 | 15.6 | 0.00 | 0.00 | 0.00 | 21 | 1010.9 |
| 20260830232004 | 105 | 247 | 10.4 | 16.5 | 0.00 | 0.00 | 0.00 | 20 | 1010.8 |
| 20260830231459 | 105 | 246 | 13.0 | 14.8 | 0.00 | 0.00 | 0.00 | 20 | 1011.0 |
| 20260830230958 | 106 | 250 | 4.3 | 14.8 | 0.00 | 0.00 | 0.00 | 20 | 1010.9 |
| 20260830230454 | 106 | 261 | 7.8 | 13.0 | 0.00 | 0.00 | 0.00 | 21 | 1011.0 |
| 20260830225952 | 107 | 254 | 8.7 | 13.9 | 0.00 | 0.00 | 0.00 | 20 | 1011.0 |
| 20260830225449 | 106 | 287 | 5.2 | 13.9 | 0.00 | 0.00 | 0.00 | 20 | 1011.1 |
| 20260830224948 | 107 | 238 | 12.2 | 13.9 | 0.00 | 0.00 | 0.00 | 20 | 1011.0 |
| 20260830224447 | 107 | 245 | 7.0 | 19.1 | 0.00 | 0.00 | 0.00 | 20 | 1011.1 |
| 20260830223944 | 107 | 232 | 8.7 | 13.0 | 0.00 | 0.00 | 0.00 | 19 | 1011.2 |
| 20260830223440 | 107 | 233 | 14.8 | 17.4 | 0.00 | 0.00 | 0.00 | 20 | 1011.2 |
| 20260830222939 | 107 | 227 | 9.6 | 18.2 | 0.00 | 0.00 | 0.00 | 20 | 1011.1 |
| 20260830222435 | 108 | 228 | 5.2 | 12.2 | 0.00 | 0.00 | 0.00 | 20 | 1011.2 |
| 20260830221930 | 108 | 245 | 7.8 | 16.5 | 0.00 | 0.00 | 0.00 | 20 | 1011.4 |
| 20260830221426 | 108 | 249 | 11.3 | 13.0 | 0.00 | 0.00 | 0.00 | 19 | 1011.5 |
| 20260830220921 | 107 | 250 | 12.2 | 20.0 | 0.00 | 0.00 | 0.00 | 20 | 1011.2 |
| 20260830220416 | 107 | 254 | 10.4 | 14.8 | 0.00 | 0.00 | 0.00 | 20 | 1011.5 |
| 20260830215913 | 106 | 237 | 12.2 | 14.8 | 0.00 | 0.00 | 0.00 | 21 | 1011.7 |
| 20260830215408 | 107 | 267 | 7.0 | 15.6 | 0.00 | 0.00 | 0.00 | 20 | 1011.7 |
| 20260830214903 | 108 | 246 | 16.5 | 18.2 | 0.00 | 0.00 | 0.00 | 20 | 1011.7 |
| 20260830214358 | 109 | 213 | 5.2 | 13.0 | 0.00 | 0.00 | 0.00 | 19 | 1011.6 |
| 20260830213852 | 108 | 232 | 3.5 | 11.3 | 0.00 | 0.00 | 0.00 | 19 | 1011.8 |
| 20260830213343 | 109 | 227 | 7.8 | 10.4 | 0.00 | 0.00 | 0.00 | 18 | 1012.0 |
| 20260830212838 | 108 | 241 | 5.2 | 11.3 | 0.00 | 0.00 | 0.00 | 18 | 1011.7 |
| 20260830212334 | 108 | 226 | 6.1 | 13.9 | 0.00 | 0.00 | 0.00 | 18 | 1012.1 |
| 20260830211832 | 108 | 261 | 5.2 | 12.2 | 0.00 | 0.00 | 0.00 | 19 | 1012.2 |
| 20260830211327 | 107 | 253 | 6.1 | 12.2 | 0.00 | 0.00 | 0.00 | 19 | 1012.3 |
| 20260830210823 | 109 | 290 | 3.5 | 5.2 | 0.00 | 0.00 | 0.00 | 19 | 1012.2 |
| 20260830210322 | 109 | 107 | 1.7 | 4.3 | 0.00 | 0.00 | 0.00 | 19 | 1012.3 |
| 20260830205820 | 107 | 94 | 3.5 | 6.1 | 0.00 | 0.00 | 0.00 | 19 | 1012.4 |
| 20260830205314 | 106 | 103 | 5.2 | 8.7 | 0.00 | 0.00 | 0.00 | 19 | 1012.6 |
| 20260830204809 | 107 | 190 | 0.9 | 7.8 | 0.00 | 0.00 | 0.00 | 19 | 1012.4 |
| 20260830204308 | 108 | 78 | 3.5 | 6.1 | 0.00 | 0.00 | 0.00 | 19 | 1012.6 |
| 20260830203804 | 108 | 98 | 4.3 | 7.0 | 0.00 | 0.00 | 0.00 | 19 | 1012.7 |
| 20260830203300 | 109 | 39 | 1.7 | 3.5 | 0.00 | 0.00 | 0.00 | 18 | 1012.8 |
| 20260830202759 | 108 | 30 | 2.6 | 3.5 | 0.00 | 0.00 | 0.00 | 19 | 1012.6 |
| 20260830202254 | 108 | 81 | 0.9 | 4.3 | 0.00 | 0.00 | 0.00 | 19 | 1012.9 |
| 20260830201749 | 107 | 86 | 1.7 | 5.2 | 0.00 | 0.00 | 0.00 | 19 | 1012.8 |
| 20260830201243 | 107 | 5 | 1.7 | 6.1 | 0.00 | 0.00 | 0.00 | 19 | 1013.1 |
| 20260830200738 | 106 | 112 | 1.7 | 6.1 | 0.00 | 0.00 | 0.00 | 19 | 1012.9 |
| 20260830200238 | 106 | 70 | 3.5 | 7.0 | 0.00 | 0.00 | 0.00 | 19 | 1013.1 |
| 20260830195733 | 106 | 99 | 7.8 | 7.8 | 0.00 | 0.00 | 0.00 | 19 | 1013.1 |
| 20260830195231 | 107 | 93 | 7.0 | 10.4 | 0.00 | 0.00 | 0.00 | 18 | 1013.2 |
| 20260830194730 | 108 | 122 | 3.5 | 7.0 | 0.00 | 0.00 | 0.00 | 18 | 1013.0 |
| 20260830194225 | 107 | 63 | 2.6 | 3.5 | 0.00 | 0.00 | 0.00 | 19 | 1013.2 |
| 20260830193720 | 107 | 76 | 3.5 | 5.2 | 0.00 | 0.00 | 0.00 | 19 | 1013.2 |
| 20260830193214 | 105 | 298 | 0.9 | 5.2 | 0.00 | 0.00 | 0.00 | 19 | 1013.2 |
| 20260830192710 | 107 | 93 | 4.3 | 4.3 | 0.00 | 0.00 | 0.00 | 19 | 1013.5 |
| 20260830192205 | 107 | 100 | 4.3 | 7.8 | 0.00 | 0.00 | 0.00 | 18 | 1013.6 |
| 20260830191701 | 105 | 123 | 2.6 | 5.2 | 0.00 | 0.00 | 0.00 | 19 | 1013.4 |
| 20260830191155 | 105 | 131 | 3.5 | 8.7 | 0.00 | 0.00 | 0.00 | 19 | 1013.6 |
| 20260830190651 | 105 | 245 | 1.7 | 4.3 | 0.00 | 0.00 | 0.00 | 19 | 1013.7 |
| 20260830190146 | 106 | 128 | 3.5 | 6.1 | 0.00 | 0.00 | 0.00 | 19 | 1013.8 |
| 20260830185644 | 107 | 111 | 5.2 | 5.2 | 0.00 | 0.00 | 0.00 | 18 | 1013.9 |
| 20260830185140 | 106 | 359 | 1.7 | 2.6 | 0.00 | 0.00 | 0.00 | 19 | 1014.1 |
| 20260830184639 | 106 | 21 | 1.7 | 5.2 | 0.00 | 0.00 | 0.00 | 19 | 1014.1 |
| 20260830184133 | 106 | 98 | 1.7 | 4.3 | 0.00 | 0.00 | 0.00 | 19 | 1014.2 |
| 20260830183633 | 106 | 132 | 0.0 | 1.7 | 0.00 | 0.00 | 0.00 | 20 | 1014.2 |
| 20260830183130 | 106 | 355 | 1.7 | 3.5 | 0.00 | 0.00 | 0.00 | 19 | 1014.3 |
| 20260830182630 | 105 | 37 | 0.0 | 2.6 | 0.00 | 0.00 | 0.00 | 19 | 1014.3 |
| 20260830182126 | 104 | 301 | 2.6 | 5.2 | 0.00 | 0.00 | 0.00 | 20 | 1014.5 |
| 20260830181622 | 105 | 273 | 1.7 | 3.5 | 0.00 | 0.00 | 0.00 | 19 | 1014.3 |
| 20260830181121 | 104 | 211 | 1.7 | 4.3 | 0.00 | 0.00 | 0.00 | 20 | 1014.6 |
| 20260830180621 | 102 | 153 | 0.9 | 3.5 | 0.00 | 0.00 | 0.00 | 20 | 1014.4 |
| 20260830180120 | 102 | 60 | 2.6 | 2.6 | 0.00 | 0.00 | 0.00 | 21 | 1014.4 |
| 20260830175619 | 104 | 100 | 3.5 | 4.3 | 0.00 | 0.00 | 0.00 | 20 | 1014.6 |
| 20260830175115 | 103 | 117 | 2.6 | 4.3 | 0.00 | 0.00 | 0.00 | 20 | 1014.7 |
| 20260830174610 | 102 | 87 | 2.6 | 5.2 | 0.00 | 0.00 | 0.00 | 21 | 1014.9 |
| 20260830174106 | 103 | 31 | 2.6 | 5.2 | 0.00 | 0.00 | 0.00 | 20 | 1014.8 |
| 20260830173600 | 103 | 63 | 1.7 | 2.6 | 0.00 | 0.00 | 0.00 | 21 | 1014.6 |
| 20260830173055 | 101 | 42 | 1.7 | 4.3 | 0.00 | 0.00 | 0.00 | 22 | 1014.7 |
| 20260830172552 | 102 | 79 | 1.7 | 5.2 | 0.00 | 0.00 | 0.00 | 21 | 1014.7 |
| 20260830172048 | 101 | 93 | 4.3 | 4.3 | 0.00 | 0.00 | 0.00 | 22 | 1014.7 |
| 20260830171543 | 102 | 60 | 2.6 | 5.2 | 0.00 | 0.00 | 0.00 | 22 | 1014.8 |
| 20260830171038 | 101 | 267 | 0.0 | 1.7 | 0.00 | 0.00 | 0.00 | 22 | 1014.7 |
| 20260830170532 | 101 | 122 | 2.6 | 3.5 | 0.00 | 0.00 | 0.00 | 22 | 1014.9 |
| 20260830170031 | 100 | 174 | 0.0 | 1.7 | 0.00 | 0.00 | 0.00 | 22 | 1015.0 |
| 20260830165526 | 99 | 167 | 0.0 | 3.5 | 0.00 | 0.00 | 0.00 | 23 | 1014.9 |
| 20260830165022 | 98 | 69 | 2.6 | 6.1 | 0.00 | 0.00 | 0.00 | 24 | 1014.8 |
| 20260830164518 | 100 | 15 | 0.0 | 3.5 | 0.00 | 0.00 | 0.00 | 23 | 1014.9 |
| 20260830164014 | 100 | 77 | 1.7 | 2.6 | 0.00 | 0.00 | 0.00 | 23 | 1014.6 |
| 20260830163511 | 99 | 97 | 3.5 | 5.2 | 0.00 | 0.00 | 0.00 | 23 | 1014.9 |
| 20260830163010 | 98 | 89 | 0.9 | 4.3 | 0.00 | 0.00 | 0.00 | 24 | 1014.7 |
| 20260830162507 | 98 | 91 | 2.6 | 4.3 | 0.00 | 0.00 | 0.00 | 24 | 1014.6 |
| 20260830162006 | 98 | 84 | 1.7 | 3.5 | 0.00 | 0.00 | 0.00 | 24 | 1014.7 |
| 20260830161500 | 97 | 66 | 1.7 | 5.2 | 0.00 | 0.00 | 0.00 | 25 | 1014.7 |
| 20260830160955 | 97 | 116 | 1.7 | 3.5 | 0.00 | 0.00 | 0.00 | 25 | 1014.6 |
| 20260830160452 | 98 | 111 | 2.6 | 3.5 | 0.00 | 0.00 | 0.00 | 25 | 1014.5 |
| 20260830155946 | 98 | 155 | 1.7 | 3.5 | 0.00 | 0.00 | 0.00 | 25 | 1014.6 |
| 20260830155443 | 98 | 71 | 0.0 | 2.6 | 0.00 | 0.00 | 0.00 | 24 | 1014.7 |
| 20260830154937 | 97 | 141 | 0.0 | 1.7 | 0.00 | 0.00 | 0.00 | 25 | 1014.7 |
| 20260830154433 | 97 | 48 | 0.0 | 2.6 | 0.00 | 0.00 | 0.00 | 25 | 1014.6 |
| 20260830153925 | 97 | 233 | 0.0 | 1.7 | 0.00 | 0.00 | 0.00 | 25 | 1014.3 |
| 20260830153420 | 95 | 199 | 0.9 | 1.7 | 0.00 | 0.00 | 0.00 | 26 | 1014.4 |
| 20260830152919 | 93 | 296 | 0.0 | 1.7 | 0.00 | 0.00 | 0.00 | 27 | 1014.4 |
| 20260830152414 | 94 | 89 | 0.0 | 2.6 | 0.00 | 0.00 | 0.00 | 28 | 1014.4 |
| 20260830151907 | 95 | 213 | 0.9 | 0.9 | 0.00 | 0.00 | 0.00 | 27 | 1014.4 |
| 20260830151402 | 95 | 123 | 0.9 | 1.7 | 0.00 | 0.00 | 0.00 | 27 | 1014.5 |
| 20260830150857 | 96 | 73 | 0.9 | 1.7 | 0.00 | 0.00 | 0.00 | 26 | 1014.6 |
| 20260830150356 | 95 | 352 | 0.0 | 0.9 | 0.00 | 0.00 | 0.00 | 29 | 1014.5 |
| 20260830145851 | 94 | 7 | 0.0 | 1.7 | 0.00 | 0.00 | 0.00 | 28 | 1014.6 |
| 20260830145345 | 92 | 3 | 1.7 | 1.7 | 0.00 | 0.00 | 0.00 | 30 | 1014.5 |
| 20260830144840 | 93 | 325 | 0.0 | 1.7 | 0.00 | 0.00 | 0.00 | 30 | 1014.6 |
| 20260830144337 | 91 | 357 | 0.0 | 1.7 | 0.00 | 0.00 | 0.00 | 31 | 1014.5 |
| 20260830143832 | 91 | 309 | 0.9 | 1.7 | 0.00 | 0.00 | 0.00 | 30 | 1014.5 |
| 20260830143332 | 90 | 75 | 0.9 | 1.7 | 0.00 | 0.00 | 0.00 | 31 | 1014.4 |
| 20260830142826 | 88 | 353 | 0.9 | 2.6 | 0.00 | 0.00 | 0.00 | 33 | 1014.6 |
| 20260830142321 | 86 | 350 | 1.7 | 2.6 | 0.00 | 0.00 | 0.00 | 34 | 1014.6 |
| 20260830141816 | 86 | 318 | 2.6 | 2.6 | 0.00 | 0.00 | 0.00 | 35 | 1014.5 |
| 20260830141311 | 84 | 97 | 0.9 | 1.7 | 0.00 | 0.00 | 0.00 | 36 | 1014.5 |
| 20260830140807 | 83 | 268 | 0.0 | 0.9 | 0.00 | 0.00 | 0.00 | 37 | 1014.3 |
| 20260830140307 | 83 | 14 | 0.9 | 1.7 | 0.00 | 0.00 | 0.00 | 38 | 1014.4 |
| 20260830135801 | 83 | 9 | 0.9 | 1.7 | 0.00 | 0.00 | 0.00 | 37 | 1014.4 |
| 20260830135257 | 84 | 45 | 0.9 | 1.7 | 0.00 | 0.00 | 0.00 | 37 | 1014.3 |